Kankakee, Illinois
Current Conditions -  °F | °C
As of 7:55 AM on Thursday 30 Oct 2014 (Local Time) from KIKK Reporting Station
Clear Clear  
Wind Chill:   Ceiling: Unl
Heat Index:   Visibility: 10mi
Dew Point: -1°   Wind: 0mph
Humidity: 96%   Direction: NA
Pressure: 30.16"   Gusts: NA
Location:  41.12°N, 87.86°W
Report Text: KIKK 301255Z AUTO 00000KT 10SM CLR 00/M01 A3016 RMK AO2 T00001006
Loading
Personal Weather Stations






























Interactive Weather Map New forecast layout! Learn more

10-Day Weather Forecast

Advertisements
Track Severe Weather on mobile